createdAt,value
2018-08-21T14:14:57.498Z,1033.9
2018-08-21T14:16:57.486Z,1033.8
2018-08-21T14:17:57.482Z,1033.79
2018-08-21T14:18:57.476Z,1033.82
2018-08-21T14:19:57.472Z,1033.67
2018-08-21T14:20:57.468Z,1033.71
2018-08-21T14:21:57.465Z,1033.59
2018-08-21T14:22:57.462Z,1033.55
2018-08-21T14:23:57.458Z,1033.52
2018-08-21T14:24:57.456Z,1033.46
2018-08-21T14:25:57.454Z,1033.34
2018-08-21T14:26:57.450Z,1033.33
2018-08-21T14:27:57.476Z,1033.3
2018-08-21T14:28:57.447Z,1033.22
2018-08-21T14:29:57.444Z,1033.24
2018-08-21T14:30:57.443Z,1033.15
2018-08-21T14:31:57.444Z,1033.1
2018-08-21T14:32:57.440Z,1033.09
2018-08-21T14:33:57.439Z,1033.02
2018-08-21T14:34:57.438Z,1033.02
2018-08-21T14:35:57.438Z,1032.99
2018-08-21T14:36:57.439Z,1032.99
2018-08-21T14:37:57.435Z,1032.98
2018-08-21T14:38:57.462Z,1032.95
2018-08-21T14:39:57.437Z,1032.91
2018-08-21T14:40:57.433Z,1032.88
2018-08-21T14:41:57.433Z,1032.83
2018-08-21T14:42:57.433Z,1032.81
2018-08-21T14:43:57.433Z,1032.77
2018-08-21T14:44:57.432Z,1032.81
2018-08-21T14:45:57.462Z,1032.73
2018-08-21T14:46:57.433Z,1032.68
2018-08-21T14:47:57.432Z,1032.65
2018-08-21T14:48:57.432Z,1032.68
2018-08-21T14:49:57.481Z,1032.67
2018-08-21T14:50:57.447Z,1032.64
2018-08-21T14:51:57.431Z,1032.67
2018-08-21T14:52:57.432Z,1032.67
2018-08-21T14:53:57.432Z,1032.63
2018-08-21T14:54:57.433Z,1032.59
2018-08-21T14:55:57.432Z,1032.59
2018-08-21T14:56:57.432Z,1032.57
2018-08-21T14:57:57.441Z,1032.57
2018-08-21T14:58:57.434Z,1032.55
2018-08-21T14:59:57.433Z,1032.58
2018-08-21T15:00:57.435Z,1032.54
2018-08-21T15:01:57.434Z,1032.48
2018-08-21T15:02:57.436Z,1032.47
2018-08-21T15:03:57.434Z,1032.4
2018-08-21T15:04:57.435Z,1032.48
2018-08-21T15:05:57.436Z,1032.51
2018-08-21T15:06:57.435Z,1032.52
2018-08-21T15:07:57.437Z,1032.46
2018-08-21T15:08:57.437Z,1032.5
2018-08-21T15:09:57.481Z,1032.48
2018-08-21T15:10:57.453Z,1032.51
2018-08-21T15:11:57.439Z,1032.46
2018-08-21T15:12:57.440Z,1032.45
2018-08-21T15:13:57.439Z,1032.49
2018-08-21T15:14:57.439Z,1032.44
2018-08-21T15:15:57.440Z,1032.52
2018-08-21T15:16:57.440Z,1032.53
2018-08-21T15:17:57.440Z,1032.47
2018-08-21T15:18:57.441Z,1032.49
2018-08-21T15:19:57.442Z,1032.48
2018-08-21T15:20:57.443Z,1032.45
2018-08-21T15:21:57.442Z,1032.47
2018-08-21T15:22:57.443Z,1032.42
2018-08-21T15:23:57.443Z,1032.47
2018-08-21T15:24:57.443Z,1032.47
2018-08-21T15:25:57.443Z,1032.41
2018-08-21T15:26:57.444Z,1032.39
2018-08-21T15:27:57.445Z,1032.39
2018-08-21T15:28:57.449Z,1032.39
2018-08-21T15:29:57.445Z,1032.39
2018-08-21T15:30:57.447Z,1032.41
2018-08-21T15:31:57.451Z,1032.41
2018-08-21T15:32:57.457Z,1032.43
2018-08-21T15:33:57.447Z,1032.44
2018-08-21T15:34:57.448Z,1032.42
2018-08-21T15:35:57.447Z,1032.42
2018-08-21T15:36:57.477Z,1032.43
2018-08-21T15:37:57.447Z,1032.4
2018-08-21T15:38:57.525Z,1032.44
2018-08-21T15:39:57.647Z,1032.44
2018-08-21T15:44:20.639Z,1032.47
2018-08-21T15:45:20.621Z,1032.5
2018-08-21T15:46:20.624Z,1032.49
2018-08-21T15:47:20.621Z,1032.59
2018-08-21T15:48:20.640Z,1032.62
2018-08-21T15:49:20.639Z,1032.61
2018-08-21T15:50:20.622Z,1032.64
2018-08-21T15:51:20.622Z,1032.67
2018-08-21T15:52:20.629Z,1032.65
2018-08-21T15:53:20.623Z,1032.65
2018-08-21T15:54:20.622Z,1032.64
2018-08-21T15:55:20.622Z,1032.63
2018-08-21T15:56:20.624Z,1032.58
2018-08-21T15:57:20.623Z,1032.58
2018-08-21T15:58:20.658Z,1032.54
2018-08-21T15:59:20.623Z,1032.54
2018-08-21T16:00:20.622Z,1032.57
2018-08-21T16:01:20.623Z,1032.46
2018-08-21T16:02:20.623Z,1032.47
2018-08-21T16:03:20.623Z,1032.45
2018-08-21T16:04:20.623Z,1032.46
2018-08-21T16:05:20.622Z,1032.47
2018-08-21T16:06:20.622Z,1032.48
2018-08-21T16:07:20.623Z,1032.5
2018-08-21T16:08:20.623Z,1032.51
2018-08-21T16:09:20.674Z,1032.5
2018-08-21T16:10:20.622Z,1032.51
2018-08-21T16:11:20.768Z,1032.49
2018-08-21T16:12:20.687Z,1032.47
2018-08-21T16:13:20.624Z,1032.5
2018-08-21T16:14:20.624Z,1032.52
2018-08-21T16:15:20.629Z,1032.55
2018-08-21T16:16:20.622Z,1032.56
2018-08-21T16:17:20.653Z,1032.57
2018-08-21T16:18:20.629Z,1032.55
2018-08-21T16:19:20.623Z,1032.58
2018-08-21T16:20:20.622Z,1032.56
2018-08-21T16:21:20.622Z,1032.56
2018-08-21T16:22:20.621Z,1032.59
2018-08-21T16:23:20.621Z,1032.59
2018-08-21T16:24:20.621Z,1032.58
2018-08-21T16:25:20.657Z,1032.56
2018-08-21T16:26:20.621Z,1032.58
2018-08-21T16:27:20.727Z,1032.58
2018-08-21T16:28:20.624Z,1032.57
2018-08-21T16:29:20.619Z,1032.56
2018-08-21T16:30:20.618Z,1032.58
2018-08-21T16:31:20.625Z,1032.57
2018-08-21T16:32:20.756Z,1032.6
2018-08-21T16:33:20.667Z,1032.57
2018-08-21T16:34:20.616Z,1032.58
2018-08-21T16:35:20.616Z,1032.55
2018-08-21T16:36:20.616Z,1032.53
2018-08-21T16:37:20.616Z,1032.53
2018-08-21T16:38:20.651Z,1032.54
2018-08-21T16:39:20.703Z,1032.54
2018-08-21T16:40:21.002Z,1032.52
2018-08-21T16:41:20.646Z,1032.6
2018-08-21T16:42:20.614Z,1032.54
2018-08-21T16:43:20.612Z,1032.57
2018-08-21T16:44:20.612Z,1032.6
2018-08-21T16:45:20.610Z,1032.59
2018-08-21T16:46:20.745Z,1032.62
2018-08-21T16:47:20.611Z,1032.62
2018-08-21T16:48:20.610Z,1032.62
2018-08-21T16:49:20.608Z,1032.6
2018-08-21T16:50:20.651Z,1032.61
2018-08-21T16:51:20.648Z,1032.6
2018-08-21T16:52:20.607Z,1032.59
2018-08-21T16:53:20.606Z,1032.61
2018-08-21T16:54:20.605Z,1032.59
2018-08-21T16:55:20.604Z,1032.61
2018-08-21T16:56:20.604Z,1032.61
2018-08-21T16:57:20.602Z,1032.59
2018-08-21T16:58:20.602Z,1032.66
2018-08-21T16:59:20.602Z,1032.66
2018-08-21T17:00:20.649Z,1032.67
2018-08-21T17:01:20.650Z,1032.7
2018-08-21T17:02:20.600Z,1032.75
2018-08-21T17:03:20.599Z,1032.72
2018-08-21T17:04:20.597Z,1032.7
2018-08-21T17:05:20.597Z,1032.72
2018-08-21T17:06:20.596Z,1032.79
2018-08-21T17:07:20.594Z,1032.76
2018-08-21T17:08:20.594Z,1032.75
2018-08-21T17:09:20.595Z,1032.78
2018-08-21T17:10:20.643Z,1032.76
2018-08-21T17:11:20.591Z,1032.77
2018-08-21T17:12:20.589Z,1032.78
2018-08-21T17:13:20.590Z,1032.74
2018-08-21T17:14:20.589Z,1032.81
2018-08-21T17:15:20.587Z,1032.81
2018-08-21T17:16:20.586Z,1032.8
2018-08-21T17:17:20.585Z,1032.81
2018-08-21T17:18:20.583Z,1032.85
2018-08-21T17:19:20.582Z,1032.85
2018-08-21T17:20:20.601Z,1032.91
2018-08-21T17:21:20.585Z,1032.9
2018-08-21T17:22:20.578Z,1032.93
2018-08-21T17:23:20.577Z,1032.92
2018-08-21T17:24:20.577Z,1032.96
2018-08-21T17:25:20.576Z,1032.99
2018-08-21T17:26:20.576Z,1032.99
2018-08-21T17:27:20.573Z,1033.05
2018-08-21T17:28:20.572Z,1033.06
2018-08-21T17:29:20.570Z,1033.05
2018-08-21T17:30:20.569Z,1033.09
2018-08-21T17:31:20.568Z,1033.07
2018-08-21T17:32:20.571Z,1033.11
2018-08-21T17:33:20.565Z,1033.11
2018-08-21T17:34:20.564Z,1033.13
2018-08-21T17:35:20.562Z,1033.15
2018-08-21T17:36:20.561Z,1033.16
2018-08-21T17:37:20.558Z,1033.21
2018-08-21T17:38:20.558Z,1033.19
2018-08-21T17:39:20.556Z,1033.2
2018-08-21T17:40:20.563Z,1033.21
2018-08-21T17:41:20.553Z,1033.2
2018-08-21T17:42:20.552Z,1033.22
2018-08-21T17:43:20.551Z,1033.22
2018-08-21T17:44:20.548Z,1033.23
2018-08-21T17:45:20.547Z,1033.26
2018-08-21T17:46:20.546Z,1033.24
2018-08-21T17:47:20.545Z,1033.27
2018-08-21T17:48:20.543Z,1033.29
2018-08-21T17:49:20.542Z,1033.28
2018-08-21T17:50:20.542Z,1033.33
2018-08-21T17:51:20.539Z,1033.3
2018-08-21T17:52:20.536Z,1033.3
2018-08-21T17:53:20.535Z,1033.29
2018-08-21T17:54:20.534Z,1033.29
2018-08-21T17:55:20.532Z,1033.29
2018-08-21T17:56:20.532Z,1033.31
2018-08-21T17:57:20.528Z,1033.35
2018-08-21T17:58:20.525Z,1033.4
2018-08-21T17:59:20.525Z,1033.44
2018-08-21T18:00:20.522Z,1033.47
2018-08-21T18:01:20.521Z,1033.46
2018-08-21T18:02:20.518Z,1033.5
2018-08-21T18:03:20.517Z,1033.49
2018-08-21T18:04:20.514Z,1033.45
2018-08-21T18:05:20.559Z,1033.49
2018-08-21T18:06:20.510Z,1033.49
2018-08-21T18:07:20.508Z,1033.51
2018-08-21T18:08:20.507Z,1033.54
2018-08-21T18:09:20.504Z,1033.59
2018-08-21T18:10:20.503Z,1033.6
2018-08-21T18:11:20.500Z,1033.66
2018-08-21T18:12:20.499Z,1033.65
2018-08-21T18:13:20.495Z,1033.73
2018-08-21T18:14:20.493Z,1033.78
2018-08-21T18:15:20.494Z,1033.78
2018-08-21T18:16:20.490Z,1033.84
2018-08-21T18:17:20.487Z,1033.84
2018-08-21T18:18:20.484Z,1033.87
2018-08-21T18:19:20.483Z,1033.86
2018-08-21T18:20:20.479Z,1033.89
2018-08-21T18:21:20.477Z,1033.91
2018-08-21T18:22:20.481Z,1033.93
2018-08-21T18:23:20.472Z,1033.95
2018-08-21T18:24:20.469Z,1034.01
2018-08-21T18:25:20.473Z,1034.02
2018-08-21T18:26:20.465Z,1034.02
2018-08-21T18:27:20.464Z,1034.03
2018-08-21T18:28:20.459Z,1034.07
2018-08-21T18:29:20.457Z,1034.11
2018-08-21T18:30:20.455Z,1034.16
2018-08-21T18:31:20.454Z,1034.17
2018-08-21T18:32:20.448Z,1034.19
2018-08-21T18:33:20.446Z,1034.22
2018-08-21T18:34:20.443Z,1034.24
2018-08-21T18:35:20.486Z,1034.25
2018-08-21T18:36:20.468Z,1034.25
2018-08-21T18:37:20.483Z,1034.25
2018-08-21T18:38:20.432Z,1034.26
2018-08-21T18:39:20.428Z,1034.31
2018-08-21T18:40:20.426Z,1034.3
2018-08-21T18:41:20.423Z,1034.31
2018-08-21T18:42:20.423Z,1034.38
2018-08-21T18:43:20.417Z,1034.44
2018-08-21T18:44:20.415Z,1034.47
2018-08-21T18:45:20.416Z,1034.48
2018-08-21T18:46:20.420Z,1034.51
2018-08-21T18:47:20.404Z,1034.51
2018-08-21T18:48:20.402Z,1034.52
2018-08-21T18:49:20.398Z,1034.5
2018-08-21T18:50:20.428Z,1034.54
2018-08-21T18:51:20.392Z,1034.58
2018-08-21T18:52:20.388Z,1034.59
2018-08-21T18:53:20.385Z,1034.62
2018-08-21T18:54:20.381Z,1034.64
2018-08-21T18:55:20.378Z,1034.68
2018-08-21T18:56:20.377Z,1034.66
2018-08-21T18:57:20.370Z,1034.68
2018-08-21T18:58:20.367Z,1034.72
2018-08-21T18:59:20.365Z,1034.73
2018-08-21T19:00:20.361Z,1034.77
2018-08-21T19:01:20.407Z,1034.81
2018-08-21T19:02:20.353Z,1034.79
2018-08-21T19:03:20.350Z,1034.83
2018-08-21T19:04:20.383Z,1034.83
2018-08-21T19:05:20.350Z,1034.85
2018-08-21T19:06:20.339Z,1034.89
2018-08-21T19:07:20.340Z,1034.91
2018-08-21T19:08:20.332Z,1034.94
2018-08-21T19:09:20.329Z,1034.99
2018-08-21T19:10:20.325Z,1035.02
2018-08-21T19:11:20.321Z,1035.04
2018-08-21T19:12:20.317Z,1035.04
2018-08-21T19:13:20.313Z,1035.08
2018-08-21T19:14:20.311Z,1035.13
2018-08-21T19:15:20.306Z,1035.15
2018-08-21T19:16:20.301Z,1035.14
2018-08-21T19:17:20.299Z,1035.16
2018-08-21T19:18:20.295Z,1035.17
2018-08-21T19:19:20.292Z,1035.18
2018-08-21T19:20:20.286Z,1035.19
2018-08-21T19:21:20.287Z,1035.21
2018-08-21T19:22:20.280Z,1035.21
2018-08-21T19:23:20.276Z,1035.28
2018-08-21T19:24:20.273Z,1035.26
2018-08-21T19:25:20.269Z,1035.29
2018-08-21T19:26:20.264Z,1035.29
2018-08-21T19:27:20.261Z,1035.3
2018-08-21T19:28:20.257Z,1035.33
2018-08-21T19:29:20.253Z,1035.38
2018-08-21T19:30:20.248Z,1035.35
2018-08-21T19:31:20.248Z,1035.36
2018-08-21T19:32:20.242Z,1035.36
2018-08-21T19:33:20.236Z,1035.4
2018-08-21T19:34:20.232Z,1035.37
2018-08-21T19:35:20.228Z,1035.36
2018-08-21T19:36:20.224Z,1035.36
2018-08-21T19:37:20.220Z,1035.41
2018-08-21T19:38:20.216Z,1035.42
2018-08-21T19:39:20.212Z,1035.42
2018-08-21T19:40:20.211Z,1035.46
2018-08-21T19:41:20.209Z,1035.44
2018-08-21T19:42:20.199Z,1035.42
2018-08-21T19:43:20.195Z,1035.41
2018-08-21T19:44:20.190Z,1035.46
2018-08-21T19:45:20.186Z,1035.47
2018-08-21T19:46:20.182Z,1035.49
2018-08-21T19:47:20.214Z,1035.5
2018-08-21T19:48:20.176Z,1035.51
2018-08-21T19:49:20.169Z,1035.49
2018-08-21T19:50:20.165Z,1035.51
2018-08-21T19:51:20.161Z,1035.5
2018-08-21T19:52:20.156Z,1035.51
2018-08-21T19:53:20.152Z,1035.52
2018-08-21T19:54:20.147Z,1035.54
2018-08-21T19:55:20.143Z,1035.53
2018-08-21T19:56:20.139Z,1035.57
2018-08-21T19:57:20.135Z,1035.56
2018-08-21T19:58:20.155Z,1035.56
2018-08-21T19:59:20.125Z,1035.56
2018-08-21T20:00:20.169Z,1035.58
2018-08-21T20:01:20.117Z,1035.56
2018-08-21T20:02:20.113Z,1035.55
2018-08-21T20:03:20.108Z,1035.51
2018-08-21T20:04:20.103Z,1035.55
2018-08-21T20:05:20.100Z,1035.54
2018-08-21T20:06:20.094Z,1035.53
2018-08-21T20:07:20.090Z,1035.53
2018-08-21T20:08:20.087Z,1035.56
2018-08-21T20:09:20.082Z,1035.58
2018-08-21T20:10:20.109Z,1035.57
2018-08-21T20:11:20.072Z,1035.61
2018-08-21T20:12:20.073Z,1035.63
2018-08-21T20:13:20.063Z,1035.59
2018-08-21T20:14:20.059Z,1035.6
2018-08-21T20:15:20.056Z,1035.63
2018-08-21T20:16:20.049Z,1035.63
2018-08-21T20:17:20.044Z,1035.61
2018-08-21T20:18:20.039Z,1035.63
2018-08-21T20:19:20.096Z,1035.6
2018-08-21T20:20:20.030Z,1035.6
2018-08-21T20:21:20.025Z,1035.63
2018-08-21T20:22:20.020Z,1035.62
2018-08-21T20:23:20.017Z,1035.63
2018-08-21T20:24:20.012Z,1035.61
2018-08-21T20:25:20.010Z,1035.65
2018-08-21T20:26:20.002Z,1035.68
2018-08-21T20:27:19.997Z,1035.67
2018-08-21T20:28:19.991Z,1035.74
2018-08-21T20:29:19.987Z,1035.67
2018-08-21T20:30:19.983Z,1035.68
2018-08-21T20:31:19.981Z,1035.66
2018-08-21T20:32:19.972Z,1035.67
2018-08-21T20:33:19.967Z,1035.66
2018-08-21T20:34:19.964Z,1035.7
2018-08-21T20:35:19.959Z,1035.68
2018-08-21T20:36:19.953Z,1035.71
2018-08-21T20:37:19.948Z,1035.68
2018-08-21T20:38:19.944Z,1035.72
2018-08-21T20:39:19.940Z,1035.7
2018-08-21T20:40:19.937Z,1035.71
2018-08-21T20:41:19.929Z,1035.67
2018-08-21T20:42:19.924Z,1035.69
2018-08-21T20:43:19.919Z,1035.71
2018-08-21T20:44:19.914Z,1035.69
2018-08-21T20:45:19.910Z,1035.67
2018-08-21T20:46:19.906Z,1035.71
2018-08-21T20:47:19.900Z,1035.72
2018-08-21T20:48:19.896Z,1035.69
2018-08-21T20:49:19.891Z,1035.69
2018-08-21T20:50:19.884Z,1035.71
2018-08-21T20:51:19.882Z,1035.72
2018-08-21T20:52:19.876Z,1035.71
2018-08-21T20:53:19.872Z,1035.71
2018-08-21T20:54:19.865Z,1035.72
2018-08-21T20:55:19.861Z,1035.69
2018-08-21T20:56:19.856Z,1035.69
2018-08-21T20:57:19.851Z,1035.72
2018-08-21T20:58:19.846Z,1035.73
2018-08-21T20:59:19.845Z,1035.71
2018-08-21T21:00:19.837Z,1035.74
2018-08-21T21:01:19.832Z,1035.76
2018-08-21T21:02:19.827Z,1035.76
2018-08-21T21:03:19.821Z,1035.78
2018-08-21T21:04:19.864Z,1035.71
2018-08-21T21:05:19.811Z,1035.79
2018-08-21T21:06:19.806Z,1035.73
2018-08-21T21:07:19.802Z,1035.76
2018-08-21T21:08:19.796Z,1035.78
2018-08-21T21:09:19.792Z,1035.83
2018-08-21T21:10:19.819Z,1035.85
2018-08-21T21:11:19.783Z,1035.91
2018-08-21T21:12:19.788Z,1035.94
2018-08-21T21:13:19.771Z,1035.92
2018-08-21T21:14:19.771Z,1035.93
2018-08-21T21:15:19.761Z,1035.94
2018-08-21T21:16:19.868Z,1035.92
2018-08-21T21:17:19.751Z,1035.95
2018-08-21T21:18:19.745Z,1035.97
2018-08-21T21:19:19.739Z,1035.96
2018-08-21T21:20:19.735Z,1035.96
2018-08-21T21:21:19.730Z,1035.96
2018-08-21T21:22:19.724Z,1036
2018-08-21T21:23:19.718Z,1036.02
2018-08-21T21:24:19.714Z,1036.04
2018-08-21T21:25:19.709Z,1036.06
2018-08-21T21:26:19.704Z,1036.07
2018-08-21T21:27:19.698Z,1036.09
2018-08-21T21:28:19.692Z,1036.11
2018-08-21T21:29:19.689Z,1036.14
2018-08-21T21:30:19.682Z,1036.13
2018-08-21T21:31:19.677Z,1036.09
2018-08-21T21:32:19.675Z,1036.13
2018-08-21T21:33:19.665Z,1036.11
2018-08-21T21:34:19.659Z,1036.11
2018-08-21T21:35:19.655Z,1036.14
2018-08-21T21:36:19.650Z,1036.14
2018-08-21T21:37:19.649Z,1036.14
2018-08-21T21:38:19.638Z,1036.13
2018-08-21T21:39:19.633Z,1036.14
2018-08-21T21:40:19.628Z,1036.15
2018-08-21T21:41:19.622Z,1036.15
2018-08-21T21:42:19.617Z,1036.17
2018-08-21T21:43:19.616Z,1036.16
2018-08-21T21:44:19.606Z,1036.21
2018-08-21T21:45:19.600Z,1036.22
2018-08-21T21:46:19.687Z,1036.23
2018-08-21T21:47:19.591Z,1036.23
2018-08-21T21:48:19.589Z,1036.2
2018-08-21T21:49:19.580Z,1036.21
2018-08-21T21:50:19.573Z,1036.22
2018-08-21T21:51:19.567Z,1036.24
2018-08-21T21:52:19.562Z,1036.29
2018-08-21T21:53:19.560Z,1036.31
2018-08-21T21:54:19.551Z,1036.28
2018-08-21T21:55:19.546Z,1036.31
2018-08-21T21:56:19.539Z,1036.32
2018-08-21T21:57:19.536Z,1036.38
2018-08-21T21:58:19.528Z,1036.33
2018-08-21T21:59:19.524Z,1036.32
2018-08-21T22:00:19.521Z,1036.35
2018-08-21T22:01:19.512Z,1036.34
2018-08-21T22:02:19.505Z,1036.33
2018-08-21T22:03:19.500Z,1036.37
2018-08-21T22:04:19.494Z,1036.37
2018-08-21T22:05:19.489Z,1036.35
2018-08-21T22:06:19.484Z,1036.38
2018-08-21T22:07:19.478Z,1036.33
2018-08-21T22:08:19.471Z,1036.35
2018-08-21T22:09:19.466Z,1036.34
2018-08-21T22:10:19.461Z,1036.38
2018-08-21T22:11:19.457Z,1036.33
2018-08-21T22:12:19.449Z,1036.37
2018-08-21T22:13:19.444Z,1036.43
2018-08-21T22:14:19.437Z,1036.41
2018-08-21T22:15:19.434Z,1036.4
2018-08-21T22:16:19.426Z,1036.4
2018-08-21T22:17:19.421Z,1036.42
2018-08-21T22:18:19.414Z,1036.37
2018-08-21T22:19:19.409Z,1036.4
2018-08-21T22:20:19.404Z,1036.42
2018-08-21T22:21:19.398Z,1036.42
2018-08-21T22:22:19.391Z,1036.44
2018-08-21T22:23:19.387Z,1036.39
2018-08-21T22:24:19.381Z,1036.44
2018-08-21T22:25:19.374Z,1036.44
2018-08-21T22:26:19.368Z,1036.44
2018-08-21T22:27:19.362Z,1036.44
2018-08-21T22:28:19.357Z,1036.45
2018-08-21T22:29:19.487Z,1036.45
2018-08-21T22:30:19.346Z,1036.46
2018-08-21T22:31:19.340Z,1036.47
2018-08-21T22:32:19.336Z,1036.49
2018-08-21T22:33:19.329Z,1036.49
2018-08-21T22:34:19.324Z,1036.54
2018-08-21T22:35:19.318Z,1036.57
2018-08-21T22:36:19.312Z,1036.66
2018-08-21T22:37:19.306Z,1036.64
2018-08-21T22:38:19.300Z,1036.59
2018-08-21T22:39:19.294Z,1036.61
2018-08-21T22:40:19.288Z,1036.62
2018-08-21T22:41:19.282Z,1036.62
2018-08-21T22:42:19.277Z,1036.57
2018-08-21T22:43:19.271Z,1036.59
2018-08-21T22:44:19.264Z,1036.63
2018-08-21T22:45:19.260Z,1036.54
2018-08-21T22:46:19.253Z,1036.58
2018-08-21T22:47:19.246Z,1036.59
2018-08-21T22:48:19.241Z,1036.63
2018-08-21T22:49:19.236Z,1036.65
2018-08-21T22:50:19.229Z,1036.62
2018-08-21T22:51:19.224Z,1036.6
2018-08-21T22:52:19.217Z,1036.61
2018-08-21T22:53:19.212Z,1036.61
2018-08-21T22:54:19.205Z,1036.59
2018-08-21T22:55:19.200Z,1036.59
2018-08-21T22:56:19.196Z,1036.6
2018-08-21T22:57:19.189Z,1036.62
2018-08-21T22:58:19.181Z,1036.58
2018-08-21T22:59:19.177Z,1036.6
2018-08-21T23:00:19.170Z,1036.65
2018-08-21T23:01:19.165Z,1036.63
2018-08-21T23:02:19.158Z,1036.65
2018-08-21T23:03:19.152Z,1036.68
2018-08-21T23:04:19.146Z,1036.66
2018-08-21T23:05:19.140Z,1036.72
2018-08-21T23:06:19.139Z,1036.73
2018-08-21T23:07:19.128Z,1036.73
2018-08-21T23:08:19.123Z,1036.79
2018-08-21T23:09:19.116Z,1036.74
2018-08-21T23:10:19.110Z,1036.81
2018-08-21T23:11:19.109Z,1036.83
2018-08-21T23:12:19.098Z,1036.87
2018-08-21T23:13:19.092Z,1036.81
2018-08-21T23:14:19.095Z,1036.85
2018-08-21T23:15:19.081Z,1036.9
2018-08-21T23:16:19.077Z,1036.84
2018-08-21T23:17:19.069Z,1036.84
2018-08-21T23:18:19.062Z,1036.89
2018-08-21T23:19:19.056Z,1036.88
2018-08-21T23:20:19.049Z,1036.92
2018-08-21T23:21:19.044Z,1036.91
2018-08-21T23:22:19.038Z,1036.9
2018-08-21T23:23:19.032Z,1036.87
2018-08-21T23:24:19.026Z,1036.84
2018-08-21T23:25:19.022Z,1036.88
2018-08-21T23:26:19.014Z,1036.89
2018-08-21T23:27:19.007Z,1036.9
2018-08-21T23:28:19.000Z,1036.93
2018-08-21T23:29:18.995Z,1036.93
2018-08-21T23:30:18.989Z,1036.95
2018-08-21T23:31:18.983Z,1036.92
2018-08-21T23:32:18.977Z,1036.87
2018-08-21T23:33:18.970Z,1036.89
2018-08-21T23:34:19.039Z,1036.86
2018-08-21T23:35:18.958Z,1036.83
2018-08-21T23:36:18.955Z,1036.8
2018-08-21T23:37:18.946Z,1036.79
2018-08-21T23:38:18.939Z,1036.79
2018-08-21T23:39:18.934Z,1036.75
2018-08-21T23:40:18.928Z,1036.79
2018-08-21T23:41:18.921Z,1036.78
2018-08-21T23:42:18.913Z,1036.81
2018-08-21T23:43:18.908Z,1036.85
2018-08-21T23:44:18.903Z,1036.86
2018-08-21T23:45:18.897Z,1036.86
2018-08-21T23:46:18.890Z,1036.85
2018-08-21T23:47:18.885Z,1036.85
2018-08-21T23:48:18.878Z,1036.82
2018-08-21T23:49:18.872Z,1036.82
2018-08-21T23:50:18.866Z,1036.8
2018-08-21T23:51:18.860Z,1036.84
2018-08-21T23:52:18.854Z,1036.82
2018-08-21T23:53:18.848Z,1036.83
2018-08-21T23:54:18.842Z,1036.82
2018-08-21T23:55:18.836Z,1036.84
2018-08-21T23:56:18.830Z,1036.84
2018-08-21T23:57:18.823Z,1036.84
2018-08-21T23:58:18.818Z,1036.83
2018-08-21T23:59:18.812Z,1036.81
